createdAt,value
2023-12-31T00:01:44.106Z,5.89
2023-12-31T00:04:10.559Z,5.76
2023-12-31T00:06:36.937Z,5.72
2023-12-31T00:09:03.425Z,5.64
2023-12-31T00:11:29.822Z,5.52
2023-12-31T00:13:56.211Z,5.50
2023-12-31T00:16:22.760Z,5.53
2023-12-31T00:18:49.302Z,5.48
2023-12-31T00:21:15.696Z,5.48
2023-12-31T00:23:42.123Z,5.38
2023-12-31T00:26:08.500Z,5.42
2023-12-31T00:28:35.014Z,5.40
2023-12-31T00:31:01.429Z,5.36
2023-12-31T00:33:28.014Z,5.34
2023-12-31T00:35:54.648Z,5.30
2023-12-31T00:38:21.033Z,5.32
2023-12-31T00:40:47.377Z,5.31
2023-12-31T00:43:13.773Z,5.28
2023-12-31T00:45:40.118Z,5.29
2023-12-31T00:48:06.984Z,5.19
2023-12-31T00:50:33.562Z,5.13
2023-12-31T00:52:59.971Z,5.07
2023-12-31T00:55:26.434Z,5.01
2023-12-31T00:57:52.896Z,5.01
2023-12-31T01:00:19.815Z,4.98
2023-12-31T01:02:47.771Z,4.89
2023-12-31T01:05:14.454Z,4.80
2023-12-31T01:07:41.096Z,4.82
2023-12-31T01:10:08.122Z,4.74
2023-12-31T01:12:34.515Z,4.69
2023-12-31T01:15:00.924Z,4.67
2023-12-31T01:17:27.384Z,4.65
2023-12-31T01:19:55.058Z,4.74
2023-12-31T01:22:21.706Z,4.84
2023-12-31T01:24:48.120Z,4.80
2023-12-31T01:27:14.493Z,4.77
2023-12-31T01:29:40.830Z,4.78
2023-12-31T01:32:07.397Z,4.76
2023-12-31T01:34:33.962Z,4.82
2023-12-31T01:37:01.427Z,4.80
2023-12-31T01:39:27.754Z,4.84
2023-12-31T01:41:54.176Z,4.84
2023-12-31T01:44:20.529Z,4.82
2023-12-31T01:46:47.737Z,4.80
2023-12-31T01:49:14.927Z,4.68
2023-12-31T01:51:41.812Z,4.63
2023-12-31T01:54:08.990Z,4.57
2023-12-31T01:56:38.459Z,4.51
2023-12-31T01:59:04.930Z,4.52
2023-12-31T02:01:33.633Z,4.45
2023-12-31T02:04:00.087Z,4.46
2023-12-31T02:06:26.473Z,4.38
2023-12-31T02:08:53.032Z,4.42
2023-12-31T02:11:19.488Z,4.39
2023-12-31T02:13:46.044Z,4.30
2023-12-31T02:16:16.788Z,4.32
2023-12-31T02:18:43.941Z,4.22
2023-12-31T02:21:14.561Z,4.21
2023-12-31T02:23:41.944Z,4.07
2023-12-31T02:26:12.785Z,4.08
2023-12-31T02:28:40.252Z,3.98
2023-12-31T02:31:07.064Z,4.09
2023-12-31T02:33:34.012Z,4.12
2023-12-31T02:36:00.623Z,4.11
2023-12-31T02:38:27.074Z,4.10
2023-12-31T02:40:53.520Z,4.04
2023-12-31T02:43:22.320Z,4.01
2023-12-31T02:45:48.854Z,3.96
2023-12-31T02:48:15.509Z,3.94
2023-12-31T02:50:42.001Z,3.99
2023-12-31T02:53:08.372Z,4.06
2023-12-31T02:55:34.813Z,3.77
2023-12-31T02:58:01.174Z,3.60
2023-12-31T03:00:27.513Z,3.64
2023-12-31T03:02:53.968Z,3.60
2023-12-31T03:05:20.400Z,3.57
2023-12-31T03:07:46.977Z,3.60
2023-12-31T03:10:13.537Z,3.84
2023-12-31T03:12:40.002Z,3.80
2023-12-31T03:15:07.010Z,3.83
2023-12-31T03:17:33.504Z,3.86
2023-12-31T03:20:00.021Z,3.73
2023-12-31T03:22:37.536Z,3.81
2023-12-31T03:25:08.483Z,3.80
2023-12-31T03:27:34.959Z,3.91
2023-12-31T03:30:01.336Z,3.85
2023-12-31T03:32:27.976Z,3.91
2023-12-31T03:34:54.714Z,3.91
2023-12-31T03:37:21.135Z,3.88
2023-12-31T03:39:47.605Z,3.85
2023-12-31T03:42:13.968Z,3.82
2023-12-31T03:44:40.349Z,3.79
2023-12-31T03:47:06.790Z,3.81
2023-12-31T03:49:33.211Z,3.79
2023-12-31T03:51:59.642Z,3.90
2023-12-31T03:54:25.976Z,4.01
2023-12-31T03:56:52.350Z,3.99
2023-12-31T03:59:18.681Z,4.01
2023-12-31T04:01:46.749Z,4.02
2023-12-31T04:04:15.855Z,4.07
2023-12-31T04:06:43.817Z,4.07
2023-12-31T04:09:12.203Z,4.10
2023-12-31T04:11:38.799Z,4.11
2023-12-31T04:14:05.234Z,4.13
2023-12-31T04:16:31.733Z,4.07
2023-12-31T04:18:58.205Z,4.10
2023-12-31T04:21:24.643Z,4.09
2023-12-31T04:23:51.701Z,3.95
2023-12-31T04:26:18.078Z,4.01
2023-12-31T04:28:44.470Z,3.96
2023-12-31T04:31:10.927Z,4.03
2023-12-31T04:33:37.298Z,4.06
2023-12-31T04:36:05.024Z,4.02
2023-12-31T04:38:32.516Z,4.03
2023-12-31T04:40:59.456Z,4.04
2023-12-31T04:43:25.843Z,4.06
2023-12-31T04:45:52.228Z,4.10
2023-12-31T04:48:18.571Z,4.12
2023-12-31T04:50:44.967Z,4.14
2023-12-31T04:53:11.314Z,4.15
2023-12-31T04:55:37.829Z,4.16
2023-12-31T04:58:04.413Z,4.14
2023-12-31T05:00:30.779Z,4.21
2023-12-31T05:02:57.096Z,4.22
2023-12-31T05:05:23.864Z,4.20
2023-12-31T05:07:50.374Z,4.21
2023-12-31T05:10:16.886Z,4.18
2023-12-31T05:12:43.333Z,4.18
2023-12-31T05:15:09.803Z,4.17
2023-12-31T05:17:36.518Z,4.16
2023-12-31T05:20:02.984Z,4.18
2023-12-31T05:22:29.417Z,4.21
2023-12-31T05:24:55.860Z,4.14
2023-12-31T05:27:22.265Z,4.16
2023-12-31T05:29:49.626Z,4.22
2023-12-31T05:32:16.221Z,4.19
2023-12-31T05:34:42.616Z,4.20
2023-12-31T05:37:09.212Z,4.29
2023-12-31T05:39:35.626Z,4.24
2023-12-31T05:42:01.953Z,4.23
2023-12-31T05:44:28.369Z,4.27
2023-12-31T05:46:54.845Z,4.25
2023-12-31T05:49:21.473Z,4.30
2023-12-31T05:51:47.997Z,4.33
2023-12-31T05:54:14.515Z,4.28
2023-12-31T05:56:40.919Z,4.31
2023-12-31T05:59:07.366Z,4.27
2023-12-31T06:01:33.806Z,4.37
2023-12-31T06:04:00.234Z,4.40
2023-12-31T06:06:26.870Z,4.39
2023-12-31T06:08:53.780Z,4.42
2023-12-31T06:11:20.153Z,4.41
2023-12-31T06:13:46.568Z,4.36
2023-12-31T06:16:13.218Z,4.38
2023-12-31T06:18:39.679Z,4.36
2023-12-31T06:21:06.424Z,4.43
2023-12-31T06:23:32.999Z,4.47
2023-12-31T06:25:59.686Z,4.49
2023-12-31T06:28:26.248Z,4.53
2023-12-31T06:30:52.695Z,4.60
2023-12-31T06:33:19.365Z,4.60
2023-12-31T06:35:45.816Z,4.59
2023-12-31T06:38:12.146Z,4.65
2023-12-31T06:40:38.976Z,4.60
2023-12-31T06:43:05.546Z,4.66
2023-12-31T06:45:32.187Z,4.68
2023-12-31T06:47:58.789Z,4.73
2023-12-31T06:50:25.313Z,4.77
2023-12-31T06:52:51.742Z,4.76
2023-12-31T06:55:18.956Z,4.74
2023-12-31T06:57:45.394Z,4.69
2023-12-31T07:00:12.228Z,4.76
2023-12-31T07:02:40.038Z,4.72
2023-12-31T07:05:07.251Z,4.69
2023-12-31T07:07:33.724Z,4.67
2023-12-31T07:10:00.237Z,4.67
2023-12-31T07:12:26.860Z,4.73
2023-12-31T07:14:53.320Z,4.72
2023-12-31T07:17:19.829Z,4.71
2023-12-31T07:19:56.089Z,4.71
2023-12-31T07:22:22.927Z,4.71
2023-12-31T07:24:49.482Z,4.73
2023-12-31T07:27:15.809Z,4.69
2023-12-31T07:29:42.774Z,4.69
2023-12-31T07:32:09.268Z,4.69
2023-12-31T07:34:36.308Z,4.73
2023-12-31T07:37:02.787Z,4.74
2023-12-31T07:39:29.135Z,4.76
2023-12-31T07:41:55.491Z,4.77
2023-12-31T07:44:21.933Z,4.77
2023-12-31T07:46:48.375Z,4.77
2023-12-31T07:49:15.064Z,4.76
2023-12-31T07:51:41.489Z,4.76
2023-12-31T07:54:08.009Z,4.77
2023-12-31T07:56:34.443Z,4.76
2023-12-31T07:59:00.910Z,4.85
2023-12-31T08:01:27.458Z,4.91
2023-12-31T08:03:54.011Z,4.97
2023-12-31T08:09:12.578Z,5.00
2023-12-31T08:11:39.077Z,4.99
2023-12-31T08:14:05.550Z,5.03
2023-12-31T08:16:32.172Z,5.04
2023-12-31T08:18:58.609Z,5.08
2023-12-31T08:21:25.049Z,5.10
2023-12-31T08:23:51.403Z,5.11
2023-12-31T08:26:17.779Z,5.16
2023-12-31T08:28:44.262Z,5.17
2023-12-31T08:31:17.678Z,5.17
2023-12-31T08:33:44.577Z,5.18
2023-12-31T08:36:11.373Z,5.25
2023-12-31T08:38:37.798Z,5.53
2023-12-31T08:41:04.420Z,5.68
2023-12-31T08:43:30.847Z,5.97
2023-12-31T08:45:57.230Z,5.97
2023-12-31T08:48:23.777Z,6.07
2023-12-31T08:50:50.604Z,6.02
2023-12-31T08:53:17.065Z,6.15
2023-12-31T08:55:43.517Z,6.21
2023-12-31T08:58:09.950Z,6.42
2023-12-31T09:00:36.306Z,6.56
2023-12-31T09:03:02.967Z,6.57
2023-12-31T09:05:29.520Z,6.64
2023-12-31T09:07:56.255Z,6.66
2023-12-31T09:10:22.897Z,6.79
2023-12-31T09:12:49.339Z,6.84
2023-12-31T09:15:15.847Z,6.72
2023-12-31T09:17:42.329Z,6.65
2023-12-31T09:20:09.956Z,6.67
2023-12-31T09:22:36.861Z,6.57
2023-12-31T09:25:07.133Z,6.60
2023-12-31T09:27:33.924Z,6.60
2023-12-31T09:30:00.429Z,6.60
2023-12-31T09:32:26.851Z,6.80
2023-12-31T09:34:53.369Z,6.79
2023-12-31T09:37:20.827Z,6.77
2023-12-31T09:39:48.256Z,6.75
2023-12-31T09:42:19.163Z,6.70
2023-12-31T09:44:45.671Z,6.66
2023-12-31T09:47:13.168Z,6.67
2023-12-31T09:49:43.426Z,6.85
2023-12-31T09:52:10.596Z,6.99
2023-12-31T09:54:41.870Z,7.22
2023-12-31T09:57:11.293Z,7.32
2023-12-31T09:59:40.787Z,7.47
2023-12-31T10:02:08.340Z,7.47
2023-12-31T10:04:35.197Z,7.59
2023-12-31T10:07:03.295Z,7.61
2023-12-31T10:09:34.898Z,7.63
2023-12-31T10:12:04.206Z,7.63
2023-12-31T10:14:30.685Z,7.65
2023-12-31T10:16:57.518Z,7.65
2023-12-31T10:19:25.005Z,7.70
2023-12-31T10:21:51.595Z,7.79
2023-12-31T10:24:30.923Z,7.77
2023-12-31T10:26:57.765Z,7.78
2023-12-31T10:29:24.339Z,7.82
2023-12-31T10:31:54.405Z,7.82
2023-12-31T10:34:21.003Z,7.87
2023-12-31T10:36:48.562Z,7.86
2023-12-31T10:39:27.840Z,7.83
2023-12-31T10:41:59.849Z,7.80
2023-12-31T10:44:27.083Z,7.85
2023-12-31T10:46:56.997Z,7.82
2023-12-31T10:49:27.590Z,7.78
2023-12-31T10:51:54.499Z,7.78
2023-12-31T10:54:43.628Z,7.76
2023-12-31T10:57:10.882Z,7.94
2023-12-31T10:59:40.388Z,7.95
2023-12-31T11:02:11.573Z,8.00
2023-12-31T11:04:38.767Z,8.00
2023-12-31T11:07:06.410Z,8.01
2023-12-31T11:09:34.723Z,8.00
2023-12-31T11:12:01.365Z,8.01
2023-12-31T11:14:32.582Z,7.84
2023-12-31T11:17:14.265Z,7.71
2023-12-31T11:20:20.755Z,7.64
2023-12-31T11:23:05.457Z,7.56
2023-12-31T11:25:32.673Z,7.43
2023-12-31T11:27:59.535Z,7.37
2023-12-31T11:30:52.806Z,7.37
2023-12-31T11:33:33.334Z,7.37
2023-12-31T11:36:06.503Z,7.43
2023-12-31T11:38:52.193Z,7.51
2023-12-31T11:41:20.279Z,7.49
2023-12-31T11:43:47.010Z,7.51
2023-12-31T11:46:39.460Z,7.53
2023-12-31T11:49:07.840Z,7.66
2023-12-31T11:51:53.151Z,7.68
2023-12-31T11:54:36.415Z,7.69
2023-12-31T11:57:04.935Z,7.67
2023-12-31T11:59:35.348Z,7.73
2023-12-31T12:02:07.139Z,7.74
2023-12-31T12:04:34.860Z,7.78
2023-12-31T12:07:02.052Z,7.75
2023-12-31T12:09:30.409Z,7.77
2023-12-31T12:12:01.603Z,7.75
2023-12-31T12:14:31.766Z,7.73
2023-12-31T12:16:59.922Z,7.76
2023-12-31T12:19:26.889Z,7.85
2023-12-31T12:21:53.796Z,7.82
2023-12-31T12:24:20.349Z,8.29
2023-12-31T12:26:51.754Z,8.42
2023-12-31T12:29:18.272Z,8.52
2023-12-31T12:31:47.458Z,8.68
2023-12-31T12:34:17.544Z,8.65
2023-12-31T12:36:44.184Z,8.67
2023-12-31T12:39:14.925Z,8.67
2023-12-31T12:41:45.692Z,8.68
2023-12-31T12:44:12.671Z,8.74
2023-12-31T12:46:41.442Z,8.74
2023-12-31T12:49:08.184Z,8.87
2023-12-31T12:51:35.572Z,8.76
2023-12-31T12:54:03.802Z,8.79
2023-12-31T12:56:30.218Z,8.74
2023-12-31T12:58:56.588Z,8.72
2023-12-31T13:01:23.126Z,8.78
2023-12-31T13:03:49.655Z,8.72
2023-12-31T13:06:17.235Z,8.71
2023-12-31T13:08:43.628Z,8.72
2023-12-31T13:11:10.053Z,8.70
2023-12-31T13:13:36.520Z,8.75
2023-12-31T13:16:09.549Z,8.80
2023-12-31T13:18:42.503Z,8.74
2023-12-31T13:21:09.167Z,8.72
2023-12-31T13:23:35.642Z,8.68
2023-12-31T13:26:02.026Z,8.71
2023-12-31T13:28:28.932Z,8.68
2023-12-31T13:30:55.397Z,8.73
2023-12-31T13:33:24.659Z,8.74
2023-12-31T13:35:51.110Z,8.77
2023-12-31T13:38:18.868Z,8.70
2023-12-31T13:40:45.557Z,8.64
2023-12-31T13:43:12.349Z,8.64
2023-12-31T13:45:39.239Z,8.65
2023-12-31T13:48:06.093Z,8.56
2023-12-31T13:50:32.517Z,8.58
2023-12-31T13:52:58.923Z,8.65
2023-12-31T13:55:25.324Z,8.62
2023-12-31T13:57:51.747Z,8.58
2023-12-31T14:00:18.233Z,8.54
2023-12-31T14:02:53.348Z,8.57
2023-12-31T14:05:23.634Z,8.48
2023-12-31T14:07:50.088Z,8.48
2023-12-31T14:10:17.412Z,8.49
2023-12-31T14:12:43.806Z,8.52
2023-12-31T14:15:11.623Z,8.48
2023-12-31T14:17:37.993Z,8.42
2023-12-31T14:20:05.472Z,8.40
2023-12-31T14:22:31.953Z,8.40
2023-12-31T14:24:58.368Z,8.38
2023-12-31T14:27:24.841Z,8.37
2023-12-31T14:29:51.252Z,8.34
2023-12-31T14:32:19.691Z,8.34
2023-12-31T14:34:47.504Z,8.36
2023-12-31T14:37:14.017Z,8.36
2023-12-31T14:39:40.411Z,8.28
2023-12-31T14:42:07.409Z,8.26
2023-12-31T14:44:33.781Z,8.26
2023-12-31T14:47:00.320Z,8.32
2023-12-31T14:49:26.892Z,8.26
2023-12-31T14:51:53.407Z,8.27
2023-12-31T14:54:19.824Z,8.22
2023-12-31T14:56:46.286Z,8.24
2023-12-31T14:59:12.859Z,8.25
2023-12-31T15:01:39.359Z,8.24
2023-12-31T15:04:07.410Z,8.21
2023-12-31T15:06:34.033Z,8.21
2023-12-31T15:09:01.663Z,8.17
2023-12-31T15:11:35.705Z,8.10
2023-12-31T15:14:05.068Z,8.11
2023-12-31T15:16:32.347Z,8.18
2023-12-31T15:18:58.769Z,8.11
2023-12-31T15:21:25.439Z,8.09
2023-12-31T15:23:51.835Z,8.12
2023-12-31T15:26:18.196Z,8.04
2023-12-31T15:28:44.666Z,8.11
2023-12-31T15:31:11.102Z,8.10
2023-12-31T15:33:37.850Z,7.99
2023-12-31T15:36:04.726Z,7.85
2023-12-31T15:38:31.177Z,7.76
2023-12-31T15:40:57.718Z,7.63
2023-12-31T15:43:24.149Z,7.59
2023-12-31T15:45:50.732Z,7.55
2023-12-31T15:48:17.171Z,7.45
2023-12-31T15:50:43.617Z,7.41
2023-12-31T15:53:10.061Z,7.41
2023-12-31T15:55:36.538Z,7.38
2023-12-31T15:58:05.473Z,7.40
2023-12-31T16:00:32.040Z,7.30
2023-12-31T16:02:58.471Z,7.32
2023-12-31T16:05:26.124Z,7.29
2023-12-31T16:07:54.364Z,7.32
2023-12-31T16:10:21.450Z,7.29
2023-12-31T16:12:47.853Z,7.22
2023-12-31T16:15:14.274Z,7.38
2023-12-31T16:17:40.727Z,7.30
2023-12-31T16:20:07.916Z,7.27
2023-12-31T16:22:34.511Z,7.33
2023-12-31T16:25:01.046Z,7.30
2023-12-31T16:27:27.473Z,7.40
2023-12-31T16:29:53.825Z,7.34
2023-12-31T16:32:20.272Z,7.38
2023-12-31T16:34:46.704Z,7.38
2023-12-31T16:37:13.131Z,7.41
2023-12-31T16:39:39.498Z,7.37
2023-12-31T16:42:05.970Z,7.32
2023-12-31T16:44:32.378Z,7.36
2023-12-31T16:46:58.857Z,7.40
2023-12-31T16:49:25.279Z,7.34
2023-12-31T16:51:51.730Z,7.41
2023-12-31T16:54:18.099Z,7.35
2023-12-31T16:56:44.656Z,7.30
2023-12-31T16:59:11.095Z,7.23
2023-12-31T17:01:37.619Z,7.20
2023-12-31T17:04:04.558Z,7.18
2023-12-31T17:06:30.960Z,7.21
2023-12-31T17:08:57.304Z,7.17
2023-12-31T17:11:23.667Z,7.17
2023-12-31T17:13:50.192Z,7.21
2023-12-31T17:16:16.636Z,7.20
2023-12-31T17:18:43.130Z,7.17
2023-12-31T17:21:10.711Z,7.11
2023-12-31T17:23:37.123Z,7.11
2023-12-31T17:26:06.647Z,6.99
2023-12-31T17:28:33.076Z,6.96
2023-12-31T17:31:00.350Z,6.98
2023-12-31T17:33:26.911Z,6.97
2023-12-31T17:35:54.987Z,6.96
2023-12-31T17:38:22.834Z,6.95
2023-12-31T17:40:50.198Z,6.93
2023-12-31T17:43:16.932Z,6.85
2023-12-31T17:45:43.458Z,6.88
2023-12-31T17:48:10.374Z,6.85
2023-12-31T17:50:37.636Z,6.76
2023-12-31T17:53:04.324Z,6.73
2023-12-31T17:55:30.855Z,6.63
2023-12-31T17:57:57.290Z,6.67
2023-12-31T18:00:23.718Z,6.62
2023-12-31T18:02:50.254Z,6.62
2023-12-31T18:05:16.677Z,6.66
2023-12-31T18:07:43.201Z,6.56
2023-12-31T18:10:11.121Z,6.52
2023-12-31T18:12:37.769Z,6.64
2023-12-31T18:15:04.677Z,6.63
2023-12-31T18:17:31.160Z,6.64
2023-12-31T18:19:58.158Z,6.69
2023-12-31T18:22:24.709Z,6.64
2023-12-31T18:24:51.242Z,6.61
2023-12-31T18:27:17.762Z,6.60
2023-12-31T18:29:45.668Z,6.63
2023-12-31T18:32:12.955Z,6.56
2023-12-31T18:34:40.352Z,6.61
2023-12-31T18:37:06.804Z,6.49
2023-12-31T18:39:35.199Z,6.57
2023-12-31T18:42:01.695Z,6.52
2023-12-31T18:44:28.040Z,6.42
2023-12-31T18:46:54.701Z,6.35
2023-12-31T18:49:26.089Z,6.33
2023-12-31T18:51:56.606Z,6.27
2023-12-31T18:54:23.086Z,6.21
2023-12-31T18:56:49.595Z,6.33
2023-12-31T18:59:16.037Z,6.34
2023-12-31T19:01:42.729Z,6.34
2023-12-31T19:04:10.511Z,6.32
2023-12-31T19:06:37.373Z,6.23
2023-12-31T19:09:08.499Z,6.15
2023-12-31T19:11:35.568Z,6.16
2023-12-31T19:14:02.067Z,6.12
2023-12-31T19:16:29.706Z,6.12
2023-12-31T19:18:57.761Z,6.03
2023-12-31T19:21:25.458Z,6.00
2023-12-31T19:23:52.682Z,5.94
2023-12-31T19:26:19.133Z,6.03
2023-12-31T19:28:45.557Z,5.99
2023-12-31T19:31:11.969Z,6.00
2023-12-31T19:33:38.404Z,5.94
2023-12-31T19:36:05.137Z,5.93
2023-12-31T19:38:31.745Z,5.95
2023-12-31T19:40:58.209Z,6.00
2023-12-31T19:43:35.487Z,6.00
2023-12-31T19:46:13.711Z,6.06
2023-12-31T19:48:41.694Z,6.10
2023-12-31T19:51:08.228Z,6.09
2023-12-31T19:53:35.226Z,6.02
2023-12-31T19:56:04.095Z,6.06
2023-12-31T19:58:30.842Z,6.03
2023-12-31T20:00:57.376Z,6.07
2023-12-31T20:03:24.472Z,6.10
2023-12-31T20:05:50.918Z,6.04
2023-12-31T20:08:17.614Z,6.01
2023-12-31T20:10:44.360Z,5.96
2023-12-31T20:13:11.031Z,5.91
2023-12-31T20:15:40.828Z,5.98
2023-12-31T20:18:07.313Z,5.96
2023-12-31T20:20:33.678Z,5.88
2023-12-31T20:23:00.326Z,5.94
2023-12-31T20:25:28.500Z,5.82
2023-12-31T20:27:55.062Z,5.93
2023-12-31T20:30:21.853Z,5.82
2023-12-31T20:32:48.789Z,5.93
2023-12-31T20:35:15.455Z,5.97
2023-12-31T20:37:41.945Z,5.98
2023-12-31T20:40:08.937Z,5.94
2023-12-31T20:42:35.376Z,5.99
2023-12-31T20:45:02.682Z,5.98
2023-12-31T20:47:29.113Z,5.97
2023-12-31T20:49:55.498Z,6.00
2023-12-31T20:52:21.912Z,5.96
2023-12-31T20:54:48.728Z,5.89
2023-12-31T20:57:17.575Z,5.80
2023-12-31T20:59:44.760Z,5.82
2023-12-31T21:02:12.848Z,5.80
2023-12-31T21:04:39.803Z,5.77
2023-12-31T21:07:06.955Z,5.80
2023-12-31T21:09:34.378Z,5.80
2023-12-31T21:12:01.510Z,5.81
2023-12-31T21:14:28.174Z,5.81
2023-12-31T21:16:54.723Z,5.73
2023-12-31T21:19:21.168Z,5.81
2023-12-31T21:21:47.570Z,5.75
2023-12-31T21:24:14.526Z,5.67
2023-12-31T21:26:42.057Z,5.70
2023-12-31T21:29:12.336Z,5.72
2023-12-31T21:31:38.879Z,5.73
2023-12-31T21:34:05.639Z,5.76
2023-12-31T21:36:32.267Z,5.71
2023-12-31T21:38:58.689Z,5.71
2023-12-31T21:41:25.561Z,5.72
2023-12-31T21:43:52.100Z,5.71
2023-12-31T21:46:18.551Z,5.66
2023-12-31T21:48:45.133Z,5.69
2023-12-31T21:51:13.029Z,5.74
2023-12-31T21:53:39.390Z,5.63
2023-12-31T21:56:21.646Z,5.65
2023-12-31T21:58:53.828Z,5.73
2023-12-31T22:01:20.191Z,5.76
2023-12-31T22:03:46.569Z,5.72
2023-12-31T22:06:14.020Z,5.73
2023-12-31T22:08:40.857Z,5.72
2023-12-31T22:11:12.472Z,5.71
2023-12-31T22:13:40.486Z,5.70
2023-12-31T22:16:07.204Z,5.70
2023-12-31T22:18:33.767Z,5.63
2023-12-31T22:21:00.291Z,5.64
2023-12-31T22:23:26.722Z,5.58
2023-12-31T22:25:53.121Z,5.60
2023-12-31T22:28:19.583Z,5.46
2023-12-31T22:30:45.996Z,5.54
2023-12-31T22:33:14.552Z,5.50
2023-12-31T22:35:42.343Z,5.52
2023-12-31T22:38:09.110Z,5.50
2023-12-31T22:40:36.904Z,5.50
2023-12-31T22:43:04.935Z,5.47
2023-12-31T22:45:31.289Z,5.49
2023-12-31T22:47:58.325Z,5.50
2023-12-31T22:50:27.744Z,5.46
2023-12-31T22:52:58.417Z,5.47
2023-12-31T22:55:24.940Z,5.49
2023-12-31T22:57:52.026Z,5.57
2023-12-31T23:00:18.723Z,5.54
2023-12-31T23:02:45.288Z,5.58
2023-12-31T23:05:11.884Z,5.65
2023-12-31T23:07:38.307Z,5.69
2023-12-31T23:10:05.141Z,5.69
2023-12-31T23:12:31.631Z,5.71
2023-12-31T23:14:58.152Z,5.68
2023-12-31T23:17:24.525Z,5.71
2023-12-31T23:19:51.035Z,5.71
2023-12-31T23:22:17.439Z,5.69
2023-12-31T23:24:43.857Z,5.78
2023-12-31T23:27:10.213Z,5.72
2023-12-31T23:29:36.619Z,5.68
2023-12-31T23:32:03.243Z,5.69
2023-12-31T23:34:29.721Z,5.75
2023-12-31T23:37:04.751Z,5.74
2023-12-31T23:39:34.067Z,5.79
2023-12-31T23:42:01.828Z,5.78
2023-12-31T23:44:30.537Z,5.73
2023-12-31T23:46:58.150Z,5.63
2023-12-31T23:49:24.777Z,5.77
2023-12-31T23:51:51.279Z,5.72
2023-12-31T23:54:17.738Z,5.73
2023-12-31T23:56:44.077Z,5.74
2023-12-31T23:59:10.677Z,5.72
